Time;durP1;ratioP1;P1;durP2;ratioP2;P2;SDS_P1;SDS_P2;PMS_P1;PMS_P2;Temp;Humidity;BMP_temperature;BMP_pressure;BME280_temperature;BME280_humidity;BME280_pressure;Samples;Min_cycle;Max_cycle;Signal;HPM_P1;HPM_P2
2022/05/23 00:01:47;;;;;;;6.70;2.40;;;;;;;;;;5023311;28;20468;-81
2022/05/23 00:04:13;;;;;;;3.33;1.90;;;;;;;;;;5025571;28;20484;-80
2022/05/23 00:06:39;;;;;;;4.03;1.70;;;;;;;;;;5026734;28;20461;-80
2022/05/23 00:09:05;;;;;;;4.07;1.93;;;;;;;;;;5026500;28;20534;-79
2022/05/23 00:11:32;;;;;;;5.80;2.03;;;;;;;;;;5025702;28;20460;-80
2022/05/23 00:13:58;;;;;;;4.40;1.73;;;;;;;;;;5023683;28;20552;-80
2022/05/23 00:16:27;;;;;;;3.90;2.17;;;;;;;;;;5026247;28;20460;-80
2022/05/23 00:18:53;;;;;;;4.67;1.97;;;;;;;;;;5022920;28;20482;-82
2022/05/23 00:21:20;;;;;;;6.30;2.57;;;;;;;;;;5026430;28;20546;-79
2022/05/23 00:23:46;;;;;;;5.33;1.97;;;;;;;;;;5024945;28;20472;-80
2022/05/23 00:26:13;;;;;;;4.30;2.10;;;;;;;;;;5025711;28;20460;-80
2022/05/23 00:28:40;;;;;;;3.60;1.50;;;;;;;;;;5024183;28;20560;-79
2022/05/23 00:31:07;;;;;;;10.83;1.87;;;;;;;;;;5025273;28;20942;-80
2022/05/23 00:36:18;;;;;;;3.50;1.77;;;;;;;;;;5025461;28;20604;-80
2022/05/23 00:38:44;;;;;;;4.13;2.33;;;;;;;;;;5024878;28;20530;-78
2022/05/23 00:44:07;;;;;;;3.43;2.03;;;;;;;;;;4979445;28;20478;-81
2022/05/23 00:46:34;;;;;;;5.00;2.20;;;;;;;;;;5037058;28;20456;-81
2022/05/23 00:49:02;;;;;;;4.27;2.33;;;;;;;;;;5035596;28;21034;-81
2022/05/23 00:51:28;;;;;;;4.17;2.47;;;;;;;;;;5035728;28;20519;-80
2022/05/23 00:53:56;;;;;;;5.53;2.20;;;;;;;;;;5035082;28;20519;-81
2022/05/23 00:56:24;;;;;;;3.23;2.47;;;;;;;;;;5032947;28;20465;-81
2022/05/23 00:58:54;;;;;;;1.90;1.80;;;;;;;;;;5035823;28;20500;-83
2022/05/23 01:01:23;;;;;;;6.60;2.73;;;;;;;;;;5034834;28;20481;-80
2022/05/23 01:03:50;;;;;;;4.90;2.80;;;;;;;;;;5036453;28;20575;-82
2022/05/23 01:06:17;;;;;;;7.23;2.77;;;;;;;;;;5037548;28;20465;-81
2022/05/23 01:08:45;;;;;;;7.87;3.27;;;;;;;;;;5036498;28;21415;-82
2022/05/23 01:11:12;;;;;;;7.20;2.70;;;;;;;;;;5035827;28;20569;-82
2022/05/23 01:13:38;;;;;;;4.03;2.43;;;;;;;;;;5032660;28;20480;-81
2022/05/23 01:16:05;;;;;;;3.10;2.57;;;;;;;;;;5037319;28;20556;-81
2022/05/23 01:18:31;;;;;;;5.30;2.67;;;;;;;;;;5034336;28;20536;-82
2022/05/23 01:20:59;;;;;;;2.73;2.50;;;;;;;;;;5035431;28;20993;-80
2022/05/23 01:23:30;;;;;;;4.57;2.30;;;;;;;;;;5034729;28;20476;-81
2022/05/23 01:25:58;;;;;;;3.23;2.30;;;;;;;;;;5034503;28;20452;-83
2022/05/23 01:28:24;;;;;;;4.10;2.57;;;;;;;;;;5035977;28;20495;-80
2022/05/23 01:30:50;;;;;;;3.93;2.93;;;;;;;;;;5034832;28;20530;-81
2022/05/23 01:33:16;;;;;;;3.63;2.37;;;;;;;;;;5035310;28;20901;-82
2022/05/23 01:35:43;;;;;;;4.97;2.63;;;;;;;;;;5037385;28;20487;-82
2022/05/23 01:38:10;;;;;;;6.77;2.90;;;;;;;;;;5034672;28;20535;-81
2022/05/23 01:40:36;;;;;;;5.37;3.37;;;;;;;;;;5035712;28;20911;-81
2022/05/23 01:43:04;;;;;;;2.93;2.37;;;;;;;;;;5035713;28;20994;-81
2022/05/23 01:45:31;;;;;;;8.27;3.37;;;;;;;;;;5033293;28;20465;-82
2022/05/23 01:47:58;;;;;;;5.00;3.17;;;;;;;;;;5033551;28;20576;-84
2022/05/23 01:50:25;;;;;;;4.23;2.50;;;;;;;;;;5035973;28;21085;-81
2022/05/23 01:52:51;;;;;;;4.67;3.23;;;;;;;;;;5036578;28;20472;-82
2022/05/23 01:55:18;;;;;;;3.13;2.70;;;;;;;;;;5034629;28;20483;-80
2022/05/23 01:57:44;;;;;;;8.10;2.50;;;;;;;;;;5034815;28;20470;-83
2022/05/23 02:02:57;;;;;;;4.50;2.73;;;;;;;;;;5034488;28;20475;-82
2022/05/23 02:05:25;;;;;;;8.63;3.60;;;;;;;;;;5032729;28;20864;-81
2022/05/23 02:07:51;;;;;;;11.10;3.30;;;;;;;;;;5032757;28;20536;-82
2022/05/23 02:10:18;;;;;;;4.50;2.83;;;;;;;;;;5036266;28;20886;-80
2022/05/23 02:12:44;;;;;;;9.80;3.03;;;;;;;;;;5032574;28;20528;-81
2022/05/23 02:15:12;;;;;;;7.23;3.50;;;;;;;;;;5036813;28;20452;-80
2022/05/23 02:17:38;;;;;;;5.30;3.00;;;;;;;;;;5034347;28;20468;-82
2022/05/23 02:20:06;;;;;;;7.63;3.33;;;;;;;;;;5032077;28;20500;-82
2022/05/23 02:22:32;;;;;;;6.70;3.27;;;;;;;;;;5034278;28;20489;-81
2022/05/23 02:24:59;;;;;;;5.13;3.93;;;;;;;;;;5033380;28;20495;-80
2022/05/23 02:27:25;;;;;;;6.03;3.33;;;;;;;;;;5034101;28;20749;-82
2022/05/23 02:29:51;;;;;;;4.37;3.03;;;;;;;;;;5035001;28;20476;-82
2022/05/23 02:32:19;;;;;;;4.07;3.67;;;;;;;;;;5031945;28;20535;-82
2022/05/23 02:34:45;;;;;;;6.83;3.33;;;;;;;;;;5034050;28;20465;-79
2022/05/23 02:37:11;;;;;;;4.40;3.40;;;;;;;;;;5030841;28;20552;-82
2022/05/23 02:39:37;;;;;;;6.97;3.40;;;;;;;;;;5033457;28;20489;-82
2022/05/23 02:42:04;;;;;;;7.13;3.30;;;;;;;;;;5033227;28;20488;-81
2022/05/23 02:44:30;;;;;;;5.20;3.10;;;;;;;;;;5036210;28;20522;-83
2022/05/23 02:46:57;;;;;;;6.83;3.53;;;;;;;;;;5034900;28;20476;-83
2022/05/23 02:49:24;;;;;;;3.53;3.03;;;;;;;;;;5035409;28;20453;-81
2022/05/23 02:51:50;;;;;;;6.77;3.63;;;;;;;;;;5035114;28;20837;-82
2022/05/23 02:54:17;;;;;;;6.77;4.30;;;;;;;;;;5032411;28;20445;-82
2022/05/23 02:56:43;;;;;;;4.93;3.27;;;;;;;;;;5034230;28;20498;-82
2022/05/23 02:59:09;;;;;;;8.50;4.30;;;;;;;;;;5033188;28;20489;-81
2022/05/23 03:03:01;;;;;;;4.87;3.77;;;;;;;;;;5034040;28;20535;-83
2022/05/23 03:04:21;;;;;;;5.00;4.10;;;;;;;;;;5034805;28;20486;-82
2022/05/23 03:06:48;;;;;;;5.90;4.00;;;;;;;;;;5034085;28;20465;-82
2022/05/23 03:09:15;;;;;;;5.93;3.90;;;;;;;;;;5033060;28;20194;-82
2022/05/23 03:11:41;;;;;;;8.87;3.63;;;;;;;;;;5033835;28;20516;-82
2022/05/23 03:14:07;;;;;;;6.43;3.87;;;;;;;;;;5034908;28;20465;-81
2022/05/23 03:16:33;;;;;;;6.80;4.00;;;;;;;;;;5033793;28;20469;-81
2022/05/23 03:18:59;;;;;;;3.80;3.10;;;;;;;;;;5033737;28;20477;-80
2022/05/23 03:27:00;;;;;;;4.23;3.83;;;;;;;;;;5033216;28;20463;-82
2022/05/23 03:29:26;;;;;;;6.20;4.53;;;;;;;;;;5033054;28;20471;-81
2022/05/23 03:31:52;;;;;;;5.43;3.93;;;;;;;;;;5033187;28;20460;-80
2022/05/23 03:34:19;;;;;;;5.53;4.37;;;;;;;;;;5033083;28;20446;-80
2022/05/23 03:36:45;;;;;;;4.60;4.20;;;;;;;;;;5032263;28;20449;-81
2022/05/23 03:39:12;;;;;;;8.20;4.30;;;;;;;;;;5032152;28;20487;-85
2022/05/23 03:41:39;;;;;;;5.60;4.60;;;;;;;;;;5031912;28;20461;-81
2022/05/23 03:44:07;;;;;;;8.63;4.97;;;;;;;;;;5032197;28;20550;-81
2022/05/23 03:46:34;;;;;;;6.00;4.23;;;;;;;;;;5031617;28;20464;-80
2022/05/23 03:49:01;;;;;;;7.60;4.73;;;;;;;;;;5030703;28;20460;-82
2022/05/23 03:51:27;;;;;;;5.70;4.90;;;;;;;;;;5032206;28;20499;-82
2022/05/23 03:53:53;;;;;;;7.23;4.93;;;;;;;;;;5034219;28;20477;-81
2022/05/23 03:56:21;;;;;;;8.03;4.87;;;;;;;;;;5030949;28;20437;-81
2022/05/23 03:58:47;;;;;;;6.53;4.70;;;;;;;;;;5031352;28;20480;-81
2022/05/23 04:01:14;;;;;;;5.27;4.60;;;;;;;;;;5032419;28;20488;-81
2022/05/23 04:03:41;;;;;;;5.10;4.60;;;;;;;;;;5031661;28;20481;-80
2022/05/23 04:06:08;;;;;;;5.90;4.67;;;;;;;;;;5032421;28;20528;-83
2022/05/23 04:08:35;;;;;;;4.77;4.27;;;;;;;;;;5032820;28;20491;-80
2022/05/23 04:11:02;;;;;;;6.10;4.50;;;;;;;;;;5035827;28;20485;-82
2022/05/23 04:13:30;;;;;;;6.20;4.90;;;;;;;;;;5032153;28;20469;-81
2022/05/23 04:15:56;;;;;;;7.40;4.47;;;;;;;;;;5032948;28;20470;-79
2022/05/23 04:18:23;;;;;;;11.60;4.97;;;;;;;;;;5034687;28;20741;-81
2022/05/23 04:20:50;;;;;;;4.57;4.00;;;;;;;;;;5034265;28;20484;-80
2022/05/23 04:23:17;;;;;;;7.10;5.13;;;;;;;;;;5033120;28;20487;-81
2022/05/23 04:25:44;;;;;;;4.70;4.30;;;;;;;;;;5032151;28;20441;-81
2022/05/23 04:28:10;;;;;;;5.20;4.00;;;;;;;;;;5031322;28;20476;-80
2022/05/23 04:30:38;;;;;;;5.80;5.17;;;;;;;;;;5031212;28;20503;-81
2022/05/23 04:35:49;;;;;;;7.60;5.20;;;;;;;;;;5034070;28;20826;-82
2022/05/23 04:38:16;;;;;;;8.10;4.40;;;;;;;;;;5035390;28;20919;-81
2022/05/23 04:40:42;;;;;;;6.30;4.67;;;;;;;;;;5036179;28;20539;-81
2022/05/23 04:43:09;;;;;;;5.70;4.13;;;;;;;;;;5035233;28;20477;-80
2022/05/23 04:45:35;;;;;;;10.30;4.33;;;;;;;;;;5034085;28;20468;-80
2022/05/23 04:50:47;;;;;;;6.83;4.40;;;;;;;;;;5036920;28;20479;-81
2022/05/23 04:53:13;;;;;;;5.87;4.20;;;;;;;;;;5032907;28;20477;-81
2022/05/23 04:55:41;;;;;;;5.00;4.20;;;;;;;;;;5036856;28;20466;-80
2022/05/23 04:58:08;;;;;;;6.30;4.67;;;;;;;;;;5034263;28;20469;-81
2022/05/23 05:00:34;;;;;;;6.00;5.33;;;;;;;;;;5033560;28;20492;-81
2022/05/23 05:03:00;;;;;;;8.67;4.57;;;;;;;;;;5034367;28;20470;-82
2022/05/23 05:05:28;;;;;;;7.37;4.33;;;;;;;;;;5034941;28;20478;-81
2022/05/23 05:07:55;;;;;;;8.33;4.70;;;;;;;;;;5036831;28;20472;-83
2022/05/23 05:10:21;;;;;;;6.00;4.30;;;;;;;;;;5035781;28;20491;-81
2022/05/23 05:12:48;;;;;;;6.67;4.10;;;;;;;;;;5034294;28;20465;-80
2022/05/23 05:15:14;;;;;;;7.03;4.27;;;;;;;;;;5034160;28;20484;-82
2022/05/23 05:17:41;;;;;;;7.40;4.67;;;;;;;;;;5033002;28;20457;-80
2022/05/23 05:20:09;;;;;;;6.33;4.67;;;;;;;;;;5033718;28;20724;-80
2022/05/23 05:22:36;;;;;;;7.20;4.40;;;;;;;;;;5035001;28;20552;-81
2022/05/23 05:25:03;;;;;;;8.77;4.00;;;;;;;;;;5035434;28;20468;-80
2022/05/23 05:27:29;;;;;;;5.97;4.20;;;;;;;;;;5034327;28;20495;-82
2022/05/23 05:29:56;;;;;;;7.10;4.83;;;;;;;;;;5036052;28;20927;-82
2022/05/23 05:32:26;;;;;;;7.53;4.73;;;;;;;;;;5033511;28;20522;-81
2022/05/23 05:34:57;;;;;;;4.70;4.20;;;;;;;;;;5034185;28;20486;-81
2022/05/23 05:37:25;;;;;;;5.10;4.60;;;;;;;;;;5026719;28;20484;-80
2022/05/23 05:39:54;;;;;;;6.10;4.33;;;;;;;;;;5027384;28;20491;-80
2022/05/23 05:42:22;;;;;;;4.97;4.43;;;;;;;;;;5032692;28;20473;-82
2022/05/23 05:44:52;;;;;;;4.87;4.47;;;;;;;;;;5034196;28;20456;-80
2022/05/23 05:47:19;;;;;;;6.30;4.03;;;;;;;;;;5031998;28;20473;-80
2022/05/23 05:49:47;;;;;;;5.00;3.57;;;;;;;;;;5033109;28;20499;-81
2022/05/23 05:52:14;;;;;;;6.20;3.90;;;;;;;;;;5031705;28;20544;-81
2022/05/23 05:54:41;;;;;;;4.20;3.80;;;;;;;;;;5033884;28;20465;-80
2022/05/23 05:57:09;;;;;;;6.10;4.30;;;;;;;;;;5034589;28;20483;-82
2022/05/23 05:59:35;;;;;;;4.57;4.10;;;;;;;;;;5033453;28;20452;-81
2022/05/23 06:02:02;;;;;;;4.63;3.20;;;;;;;;;;5033434;28;20476;-82
2022/05/23 06:04:28;;;;;;;5.77;4.27;;;;;;;;;;5032596;28;20492;-81
2022/05/23 06:12:24;;;;;;;4.30;3.90;;;;;;;;;;5034570;28;20500;-80
2022/05/23 06:14:50;;;;;;;9.70;4.17;;;;;;;;;;5033599;28;20464;-81
2022/05/23 06:17:16;;;;;;;4.67;4.20;;;;;;;;;;5033753;28;20513;-80
2022/05/23 06:19:44;;;;;;;6.90;4.00;;;;;;;;;;5033469;28;20530;-82
2022/05/23 06:22:11;;;;;;;5.27;4.33;;;;;;;;;;5032299;28;20462;-82
2022/05/23 06:24:37;;;;;;;7.40;4.13;;;;;;;;;;5034539;28;20456;-83
2022/05/23 06:27:06;;;;;;;7.30;3.80;;;;;;;;;;5035066;28;20484;-80
2022/05/23 06:29:34;;;;;;;6.60;4.70;;;;;;;;;;5034915;28;20839;-81
2022/05/23 06:32:01;;;;;;;6.10;4.10;;;;;;;;;;5032737;28;20480;-80
2022/05/23 06:34:27;;;;;;;6.27;4.03;;;;;;;;;;5031867;28;20562;-81
2022/05/23 06:36:53;;;;;;;7.17;4.37;;;;;;;;;;5033498;28;20475;-80
2022/05/23 06:39:20;;;;;;;7.83;3.80;;;;;;;;;;5033427;28;20459;-81
2022/05/23 06:41:46;;;;;;;6.10;4.20;;;;;;;;;;5052702;22;20484;-86
2022/05/23 06:44:12;;;;;;;5.10;3.93;;;;;;;;;;5027963;28;20457;-87
2022/05/23 06:46:40;;;;;;;8.23;3.57;;;;;;;;;;5024920;28;20461;-87
2022/05/23 06:49:07;;;;;;;7.33;4.10;;;;;;;;;;5030452;28;21005;-87
2022/05/23 06:51:33;;;;;;;4.70;4.10;;;;;;;;;;5028526;28;20567;-87
2022/05/23 06:54:00;;;;;;;5.77;3.67;;;;;;;;;;5031907;28;20495;-88
2022/05/23 06:56:28;;;;;;;6.30;3.90;;;;;;;;;;5028054;28;20465;-89
2022/05/23 06:58:54;;;;;;;6.90;3.60;;;;;;;;;;5028310;28;20825;-88
2022/05/23 07:01:20;;;;;;;7.13;3.73;;;;;;;;;;5029165;28;20968;-87
2022/05/23 07:03:48;;;;;;;9.93;4.07;;;;;;;;;;5031949;28;20518;-87
2022/05/23 07:14:27;;;;;;;11.43;4.03;;;;;;;;;;5031633;28;20442;-88
2022/05/23 07:16:54;;;;;;;6.10;3.87;;;;;;;;;;5020267;28;20489;-87
2022/05/23 07:19:22;;;;;;;6.90;3.67;;;;;;;;;;5026099;28;20477;-88
2022/05/23 07:21:48;;;;;;;7.73;4.13;;;;;;;;;;5026718;28;20553;-89
2022/05/23 07:24:14;;;;;;;5.43;3.80;;;;;;;;;;5025534;28;20453;-87
2022/05/23 07:26:41;;;;;;;6.93;4.00;;;;;;;;;;5022990;28;20823;-87
2022/05/23 07:29:08;;;;;;;7.33;4.10;;;;;;;;;;5025700;28;21020;-86
2022/05/23 07:31:34;;;;;;;6.63;4.20;;;;;;;;;;5030320;28;20473;-86
2022/05/23 07:34:00;;;;;;;9.23;4.20;;;;;;;;;;5030362;28;20483;-88
2022/05/23 07:36:28;;;;;;;5.57;4.40;;;;;;;;;;5025487;28;20461;-88
2022/05/23 07:38:54;;;;;;;8.57;4.63;;;;;;;;;;5024824;28;20483;-87
2022/05/23 07:41:21;;;;;;;14.80;5.70;;;;;;;;;;5026745;28;20466;-88
2022/05/23 07:43:47;;;;;;;10.10;5.23;;;;;;;;;;5025295;28;20459;-88
2022/05/23 07:46:14;;;;;;;11.53;4.70;;;;;;;;;;5031859;28;20440;-86
2022/05/23 07:48:41;;;;;;;6.93;5.00;;;;;;;;;;5026195;28;20448;-88
2022/05/23 07:51:08;;;;;;;10.40;5.97;;;;;;;;;;5027841;28;20451;-86
2022/05/23 08:01:48;;;;;;;8.80;4.43;;;;;;;;;;5020124;28;20493;-86
2022/05/23 08:04:14;;;;;;;16.03;5.47;;;;;;;;;;5028525;28;20497;-85
2022/05/23 08:06:41;;;;;;;10.00;3.83;;;;;;;;;;5022077;28;20478;-88
2022/05/23 08:09:09;;;;;;;10.00;4.53;;;;;;;;;;5024698;28;20443;-86
2022/05/23 08:11:36;;;;;;;12.90;4.90;;;;;;;;;;5027930;28;20534;-87
2022/05/23 08:14:02;;;;;;;9.50;4.13;;;;;;;;;;5031995;28;20472;-87
2022/05/23 08:16:30;;;;;;;6.50;4.20;;;;;;;;;;5028982;28;20503;-86
2022/05/23 08:18:56;;;;;;;6.00;4.60;;;;;;;;;;5028629;28;20499;-86
2022/05/23 08:21:22;;;;;;;11.63;5.70;;;;;;;;;;5027725;28;20462;-86
2022/05/23 08:23:48;;;;;;;11.60;5.37;;;;;;;;;;5021460;28;20447;-86
2022/05/23 08:26:16;;;;;;;7.33;5.10;;;;;;;;;;5027045;28;20446;-86
2022/05/23 08:28:43;;;;;;;8.57;4.57;;;;;;;;;;5027104;28;20479;-87
2022/05/23 08:31:09;;;;;;;15.17;4.80;;;;;;;;;;5028980;28;20869;-85
2022/05/23 08:33:36;;;;;;;7.30;4.27;;;;;;;;;;5026282;28;20531;-86
2022/05/23 08:36:02;;;;;;;5.33;4.20;;;;;;;;;;5027534;28;20456;-86
2022/05/23 08:38:28;;;;;;;3.60;3.20;;;;;;;;;;5030531;28;20887;-85
2022/05/23 08:41:01;;;;;;;6.10;4.10;;;;;;;;;;5029709;28;20488;-86
2022/05/23 08:43:31;;;;;;;7.90;4.63;;;;;;;;;;5032364;28;20476;-87
2022/05/23 08:45:57;;;;;;;9.40;3.90;;;;;;;;;;5023829;28;20465;-88
2022/05/23 08:48:27;;;;;;;5.70;4.23;;;;;;;;;;5027571;28;20476;-86
2022/05/23 08:50:59;;;;;;;9.27;4.23;;;;;;;;;;5027384;28;20476;-86
2022/05/23 08:53:27;;;;;;;7.57;4.37;;;;;;;;;;5026620;28;20840;-87
2022/05/23 08:55:56;;;;;;;7.67;4.73;;;;;;;;;;5032078;28;20500;-86
2022/05/23 08:58:23;;;;;;;8.17;4.23;;;;;;;;;;5028724;28;20508;-86
2022/05/23 09:00:54;;;;;;;7.67;4.40;;;;;;;;;;5029123;28;20534;-84
2022/05/23 09:03:22;;;;;;;8.33;5.07;;;;;;;;;;5030076;28;20469;-86
2022/05/23 09:05:51;;;;;;;10.70;4.90;;;;;;;;;;5027910;28;20510;-86
2022/05/23 09:08:21;;;;;;;6.77;3.70;;;;;;;;;;5027450;28;20477;-87
2022/05/23 09:10:54;;;;;;;7.40;4.43;;;;;;;;;;5031968;28;20472;-87
2022/05/23 09:13:21;;;;;;;13.70;4.50;;;;;;;;;;5028339;28;20480;-84
2022/05/23 09:15:50;;;;;;;8.07;4.53;;;;;;;;;;5026887;28;20456;-86
2022/05/23 09:18:21;;;;;;;6.80;4.10;;;;;;;;;;5028541;28;20483;-87
2022/05/23 09:20:48;;;;;;;8.80;4.67;;;;;;;;;;5031006;28;20473;-87
2022/05/23 09:23:19;;;;;;;9.07;4.73;;;;;;;;;;5021439;28;20469;-85
2022/05/23 09:25:45;;;;;;;7.60;3.80;;;;;;;;;;5031971;28;20453;-85
2022/05/23 09:28:16;;;;;;;6.60;4.40;;;;;;;;;;5029425;28;20476;-85
2022/05/23 09:30:45;;;;;;;11.70;3.83;;;;;;;;;;5029553;28;20484;-86
2022/05/23 09:33:12;;;;;;;11.67;4.57;;;;;;;;;;5025371;28;20472;-86
2022/05/23 09:35:50;;;;;;;6.87;4.27;;;;;;;;;;5033250;28;20445;-86
2022/05/23 09:38:18;;;;;;;7.40;4.10;;;;;;;;;;5020859;28;20464;-86
2022/05/23 09:40:45;;;;;;;8.03;4.40;;;;;;;;;;5024894;28;20489;-85
2022/05/23 09:49:03;;;;;;;6.03;3.70;;;;;;;;;;5022472;28;20471;-87
2022/05/23 09:51:30;;;;;;;6.13;4.40;;;;;;;;;;5022877;28;20481;-87
2022/05/23 09:54:00;;;;;;;8.63;4.57;;;;;;;;;;5027604;28;20512;-86
2022/05/23 09:56:31;;;;;;;4.03;3.40;;;;;;;;;;5025628;28;20445;-85
2022/05/23 09:58:58;;;;;;;5.80;3.17;;;;;;;;;;5024282;28;20478;-86
2022/05/23 10:01:25;;;;;;;6.50;3.60;;;;;;;;;;5029409;28;20495;-83
2022/05/23 10:03:52;;;;;;;5.40;4.20;;;;;;;;;;5020068;28;20892;-85
2022/05/23 10:06:19;;;;;;;8.53;4.30;;;;;;;;;;5023480;28;20467;-85
2022/05/23 10:08:48;;;;;;;5.83;3.73;;;;;;;;;;5027067;28;20532;-86
2022/05/23 10:11:20;;;;;;;8.63;4.10;;;;;;;;;;5029408;28;20512;-87
2022/05/23 10:13:50;;;;;;;9.70;4.00;;;;;;;;;;5027833;28;20489;-87
2022/05/23 10:16:19;;;;;;;6.03;3.97;;;;;;;;;;5028843;28;20465;-85
2022/05/23 10:18:47;;;;;;;10.53;4.23;;;;;;;;;;5029665;28;20476;-85
2022/05/23 10:21:20;;;;;;;7.07;3.40;;;;;;;;;;5019457;28;20462;-86
2022/05/23 10:23:59;;;;;;;4.30;3.90;;;;;;;;;;5025949;28;20465;-86
2022/05/23 10:26:26;;;;;;;5.17;3.53;;;;;;;;;;5028109;28;20461;-86
2022/05/23 10:28:56;;;;;;;5.60;3.60;;;;;;;;;;5029346;28;20477;-86
2022/05/23 10:31:26;;;;;;;8.33;4.00;;;;;;;;;;5027675;28;20559;-85
2022/05/23 10:33:56;;;;;;;8.30;4.17;;;;;;;;;;5024647;28;20480;-86
2022/05/23 10:36:24;;;;;;;5.93;4.00;;;;;;;;;;5027440;28;20462;-89
2022/05/23 10:44:37;;;;;;;8.20;3.40;;;;;;;;;;5024123;28;20476;-87
2022/05/23 10:47:07;;;;;;;5.23;3.60;;;;;;;;;;5026295;28;20526;-87
2022/05/23 10:49:37;;;;;;;4.47;3.50;;;;;;;;;;5027741;28;20473;-86
2022/05/23 10:52:06;;;;;;;9.00;3.97;;;;;;;;;;5022799;28;21017;-87
2022/05/23 10:54:38;;;;;;;9.30;4.17;;;;;;;;;;5022586;28;20466;-85
2022/05/23 10:57:08;;;;;;;7.57;4.00;;;;;;;;;;5019692;28;20554;-87
2022/05/23 10:59:40;;;;;;;10.83;3.70;;;;;;;;;;5029604;28;20479;-85
2022/05/23 11:02:11;;;;;;;4.03;3.60;;;;;;;;;;5025014;28;20476;-86
2022/05/23 11:04:44;;;;;;;8.40;4.20;;;;;;;;;;5027752;28;20494;-86
2022/05/23 11:07:20;;;;;;;7.23;4.17;;;;;;;;;;5028666;28;20492;-85
2022/05/23 11:09:51;;;;;;;6.77;4.20;;;;;;;;;;5020431;28;20468;-86
2022/05/23 11:12:25;;;;;;;5.50;3.67;;;;;;;;;;5021387;28;20530;-89
2022/05/23 11:14:58;;;;;;;6.70;3.93;;;;;;;;;;5023784;28;20495;-85
2022/05/23 11:17:29;;;;;;;6.80;4.00;;;;;;;;;;5023837;28;21032;-88
2022/05/23 11:20:04;;;;;;;4.50;3.53;;;;;;;;;;5020695;28;20438;-86
2022/05/23 11:22:33;;;;;;;9.70;3.90;;;;;;;;;;5026317;28;20546;-87
2022/05/23 11:25:03;;;;;;;6.55;3.83;;;;;;;;;;5026457;28;20508;-87
2022/05/23 11:35:48;;;;;;;10.98;3.92;;;;;;;;;;5026015;28;20425;-84
2022/05/23 11:38:15;;;;;;;6.20;3.60;;;;;;;;;;5025356;28;20921;-87
2022/05/23 11:41:05;;;;;;;5.40;4.10;;;;;;;;;;5024647;28;20518;-86
2022/05/23 11:43:33;;;;;;;8.80;3.90;;;;;;;;;;5004964;28;20812;-87
2022/05/23 11:46:03;;;;;;;4.43;3.60;;;;;;;;;;5027085;28;20423;-86
2022/05/23 11:48:34;;;;;;;6.53;4.00;;;;;;;;;;5029778;28;20509;-86
2022/05/23 11:51:09;;;;;;;4.90;4.00;;;;;;;;;;5025178;28;20437;-89
2022/05/23 11:53:37;;;;;;;6.40;3.85;;;;;;;;;;5024313;28;20454;-89
2022/05/23 11:56:06;;;;;;;7.78;4.60;;;;;;;;;;5033143;28;22209;-88
2022/05/23 11:58:48;;;;;;;7.90;4.70;;;;;;;;;;5029795;28;20792;-89
2022/05/23 12:01:20;;;;;;;7.00;4.25;;;;;;;;;;5025443;28;20468;-88
2022/05/23 12:04:05;;;;;;;4.93;3.70;;;;;;;;;;5028314;28;20537;-84
2022/05/23 12:06:39;;;;;;;8.05;4.60;;;;;;;;;;5022677;28;20438;-89
2022/05/23 12:09:06;;;;;;;5.23;4.10;;;;;;;;;;5022176;28;20863;-89
2022/05/23 12:11:34;;;;;;;5.47;3.97;;;;;;;;;;5031801;28;20438;-88
2022/05/23 12:14:15;;;;;;;7.53;3.70;;;;;;;;;;5030710;28;20455;-89
2022/05/23 12:16:43;;;;;;;4.95;3.92;;;;;;;;;;5026089;28;20494;-88
2022/05/23 12:19:14;;;;;;;5.47;3.95;;;;;;;;;;5027487;28;20422;-88
2022/05/23 12:21:42;;;;;;;6.80;4.10;;;;;;;;;;5026378;28;20446;-88
2022/05/23 12:24:13;;;;;;;6.75;3.90;;;;;;;;;;5023404;28;20911;-88
2022/05/23 12:26:40;;;;;;;6.80;4.05;;;;;;;;;;5018145;28;20944;-91
2022/05/23 12:29:21;;;;;;;7.32;4.10;;;;;;;;;;5023852;28;20422;-88
2022/05/23 12:32:03;;;;;;;7.80;4.80;;;;;;;;;;5024703;28;20429;-89
2022/05/23 12:34:31;;;;;;;7.30;3.80;;;;;;;;;;5025056;28;20436;-88
2022/05/23 12:36:58;;;;;;;7.03;4.00;;;;;;;;;;5024260;28;20426;-88
2022/05/23 12:39:38;;;;;;;6.95;4.22;;;;;;;;;;5020276;28;20409;-88
2022/05/23 12:42:17;;;;;;;8.10;4.30;;;;;;;;;;5052424;22;21261;-83
2022/05/23 12:45:02;;;;;;;9.48;4.10;;;;;;;;;;5060894;28;20482;-83
2022/05/23 12:47:43;;;;;;;8.13;3.90;;;;;;;;;;5061264;28;20416;-84
2022/05/23 12:50:19;;;;;;;5.70;3.88;;;;;;;;;;5061461;28;20431;-83
2022/05/23 12:52:54;;;;;;;5.15;3.60;;;;;;;;;;5059976;28;20425;-82
2022/05/23 12:55:30;;;;;;;6.93;3.90;;;;;;;;;;5058058;28;20448;-83
2022/05/23 12:58:09;;;;;;;6.87;3.70;;;;;;;;;;5057846;28;20456;-83
2022/05/23 13:00:37;;;;;;;7.00;4.05;;;;;;;;;;5059603;28;20460;-84
2022/05/23 13:03:09;;;;;;;6.95;4.10;;;;;;;;;;5059448;28;20422;-84
2022/05/23 13:05:39;;;;;;;5.50;3.60;;;;;;;;;;5060090;28;21025;-83
2022/05/23 13:08:07;;;;;;;5.85;3.50;;;;;;;;;;5055964;28;20419;-84
2022/05/23 13:10:36;;;;;;;5.85;3.67;;;;;;;;;;5060412;28;20900;-83
2022/05/23 13:13:04;;;;;;;10.40;3.83;;;;;;;;;;5059364;28;20826;-83
2022/05/23 13:15:31;;;;;;;6.20;4.00;;;;;;;;;;5057242;28;20434;-82
2022/05/23 13:22:05;;;;;;;5.15;3.72;;;;;;;;;;5059733;28;20440;-84
2022/05/23 13:23:31;;;;;;;6.03;4.00;;;;;;;;;;5060279;28;21001;-84
2022/05/23 13:25:58;;;;;;;7.45;4.20;;;;;;;;;;5060507;28;20506;-84
2022/05/23 13:28:24;;;;;;;6.80;3.67;;;;;;;;;;5058951;28;20500;-82
2022/05/23 13:30:52;;;;;;;5.90;4.13;;;;;;;;;;5060575;28;20433;-84
2022/05/23 13:33:21;;;;;;;7.32;3.80;;;;;;;;;;5058135;28;20474;-83
2022/05/23 13:35:53;;;;;;;7.20;4.00;;;;;;;;;;5059747;28;20528;-83
2022/05/23 13:38:22;;;;;;;3.90;3.50;;;;;;;;;;5058563;28;20437;-84
2022/05/23 13:40:50;;;;;;;5.53;4.10;;;;;;;;;;5060325;28;20435;-82
2022/05/23 13:43:18;;;;;;;6.00;4.20;;;;;;;;;;5058428;28;20516;-83
2022/05/23 13:45:44;;;;;;;7.78;4.47;;;;;;;;;;5059040;28;20439;-82
2022/05/23 13:48:16;;;;;;;7.35;4.22;;;;;;;;;;5057547;28;20425;-83
2022/05/23 13:50:44;;;;;;;5.57;4.20;;;;;;;;;;5058354;28;20433;-84
2022/05/23 13:53:14;;;;;;;5.88;4.07;;;;;;;;;;5058058;28;20428;-84
2022/05/23 13:55:42;;;;;;;4.03;3.53;;;;;;;;;;5058305;28;20480;-82
2022/05/23 13:58:10;;;;;;;7.97;3.80;;;;;;;;;;5055908;28;20425;-85
2022/05/23 14:00:39;;;;;;;5.68;4.00;;;;;;;;;;5060069;28;20433;-82
2022/05/23 14:03:08;;;;;;;7.82;3.90;;;;;;;;;;5057442;28;20599;-83
2022/05/23 14:05:37;;;;;;;7.30;4.55;;;;;;;;;;5054932;28;20464;-83
2022/05/23 14:08:04;;;;;;;5.85;4.30;;;;;;;;;;5050514;28;20418;-81
2022/05/23 14:10:36;;;;;;;4.82;4.32;;;;;;;;;;5057990;28;20436;-84
2022/05/23 14:13:02;;;;;;;7.75;4.80;;;;;;;;;;5057074;28;20494;-82
2022/05/23 14:15:30;;;;;;;6.53;4.17;;;;;;;;;;5059561;28;20504;-84
2022/05/23 14:17:58;;;;;;;5.63;3.67;;;;;;;;;;5057075;28;20413;-83
2022/05/23 14:20:25;;;;;;;6.13;4.40;;;;;;;;;;5058390;28;20459;-83
2022/05/23 14:23:02;;;;;;;6.60;4.30;;;;;;;;;;5060067;28;20933;-84
2022/05/23 14:25:33;;;;;;;5.80;4.10;;;;;;;;;;5058222;28;20460;-84
2022/05/23 14:28:05;;;;;;;4.35;3.95;;;;;;;;;;5057855;28;20409;-81
2022/05/23 14:30:35;;;;;;;7.00;4.10;;;;;;;;;;5059071;28;20417;-83
2022/05/23 14:33:02;;;;;;;7.70;4.72;;;;;;;;;;5055442;28;20421;-83
2022/05/23 14:35:32;;;;;;;6.75;4.30;;;;;;;;;;5059566;28;20427;-83
2022/05/23 14:37:58;;;;;;;6.22;3.90;;;;;;;;;;5057721;28;20429;-80
2022/05/23 14:40:27;;;;;;;7.50;3.70;;;;;;;;;;5059240;28;20449;-83
2022/05/23 14:42:55;;;;;;;6.00;3.80;;;;;;;;;;5060035;28;20425;-83
2022/05/23 14:45:25;;;;;;;5.40;3.63;;;;;;;;;;5061691;28;20413;-83
2022/05/23 14:48:15;;;;;;;6.32;3.70;;;;;;;;;;5059202;28;20471;-84
2022/05/23 14:50:44;;;;;;;5.93;3.70;;;;;;;;;;5057742;28;20496;-83
2022/05/23 14:56:10;;;;;;;6.03;3.50;;;;;;;;;;5058597;28;20477;-83
2022/05/23 15:01:23;;;;;;;5.47;3.80;;;;;;;;;;5059778;28;20448;-84
2022/05/23 15:03:51;;;;;;;6.38;4.30;;;;;;;;;;5058301;28;20421;-83
2022/05/23 15:06:18;;;;;;;5.80;3.70;;;;;;;;;;5058952;28;20744;-84
2022/05/23 15:08:45;;;;;;;5.43;3.40;;;;;;;;;;5061057;28;20425;-82
2022/05/23 15:11:14;;;;;;;4.30;3.35;;;;;;;;;;5059552;28;20498;-83
2022/05/23 15:13:42;;;;;;;7.40;3.90;;;;;;;;;;5060120;28;20765;-84
2022/05/23 15:16:15;;;;;;;7.47;3.90;;;;;;;;;;5060777;28;20417;-84
2022/05/23 15:18:41;;;;;;;6.95;4.00;;;;;;;;;;5058012;28;20425;-83
2022/05/23 15:21:10;;;;;;;10.50;4.30;;;;;;;;;;5060740;28;20416;-84
2022/05/23 15:23:37;;;;;;;7.43;4.18;;;;;;;;;;5060614;28;20427;-83
2022/05/23 15:26:04;;;;;;;4.88;4.20;;;;;;;;;;5060553;28;20436;-83
2022/05/23 15:28:31;;;;;;;7.95;4.18;;;;;;;;;;5058044;28;20440;-84
2022/05/23 15:30:58;;;;;;;4.80;4.30;;;;;;;;;;5059052;28;21018;-84
2022/05/23 15:33:25;;;;;;;7.20;4.43;;;;;;;;;;5057856;28;20962;-84
2022/05/23 15:35:51;;;;;;;6.27;4.50;;;;;;;;;;5058208;28;20859;-83
2022/05/23 15:38:17;;;;;;;5.68;4.15;;;;;;;;;;5057470;28;20429;-83
2022/05/23 15:40:44;;;;;;;8.18;4.80;;;;;;;;;;5058842;28;20429;-83
2022/05/23 15:43:11;;;;;;;4.97;3.87;;;;;;;;;;5058284;28;20445;-81
2022/05/23 15:45:40;;;;;;;6.22;4.32;;;;;;;;;;5059821;28;20425;-82
2022/05/23 15:48:09;;;;;;;6.40;4.45;;;;;;;;;;5059732;28;20440;-83
2022/05/23 15:50:38;;;;;;;8.20;4.90;;;;;;;;;;5058363;28;20481;-84
2022/05/23 15:53:06;;;;;;;7.30;4.53;;;;;;;;;;5059297;28;20425;-83
2022/05/23 15:55:32;;;;;;;7.57;4.90;;;;;;;;;;5062082;28;20440;-84
2022/05/23 15:57:59;;;;;;;7.90;4.60;;;;;;;;;;5058936;28;20492;-83
2022/05/23 16:00:27;;;;;;;7.18;4.38;;;;;;;;;;5060779;28;20420;-84